Time;durP1;ratioP1;P1;durP2;ratioP2;P2;SDS_P1;SDS_P2;PMS_P1;PMS_P2;Temp;Humidity;BMP_temperature;BMP_pressure;BME280_temperature;BME280_humidity;BME280_pressure;Samples;Min_cycle;Max_cycle;Signal;HPM_P1;HPM_P2
2022/06/17 00:01:00;;;;;;;;;;;;;;;18.47;66.36;102303.59;5070233;28;19921;-34
2022/06/17 00:03:26;;;;;;;;;;;;;;;18.50;66.15;102295.84;5086675;28;19920;-34
2022/06/17 00:05:52;;;;;;;;;;;;;;;18.49;65.77;102287.88;5078212;28;19950;-34
2022/06/17 00:08:44;;;;;;;;;;;;;;;18.42;66.15;102287.81;5078768;28;19920;-35
2022/06/17 00:11:10;;;;;;;;;;;;;;;18.41;67.06;102288.88;5091119;28;19932;-36
2022/06/17 00:13:35;;;;;;;;;;;;;;;18.37;66.71;102287.56;5077045;28;19972;-35
2022/06/17 00:16:00;;;;;;;;;;;;;;;18.32;66.81;102285.44;5066860;28;19920;-33
2022/06/17 00:18:25;;;;;;;;;;;;;;;18.31;67.28;102282.94;5080088;28;19920;-35
2022/06/17 00:20:51;;;;;;;;;;;;;;;18.28;67.20;102273.25;5069714;28;19932;-35
2022/06/17 00:23:17;;;;;;;;;;;;;;;18.23;67.45;102283.06;5079793;28;19919;-34
2022/06/17 00:25:45;;;;;;;;;;;;;;;18.17;67.41;102277.38;5083414;28;19932;-35
2022/06/17 00:28:15;;;;;;;;;;;;;;;18.12;67.90;102277.13;5086835;28;20253;-37
2022/06/17 00:30:40;;;;;;;;;;;;;;;18.10;68.49;102284.63;5077881;28;19916;-34
2022/06/17 00:33:05;;;;;;;;;;;;;;;18.10;68.37;102281.91;5073435;28;19974;-33
2022/06/17 00:35:32;;;;;;;;;;;;;;;18.11;68.69;102278.13;5078938;28;19920;-36
2022/06/17 00:37:58;;;;;;;;;;;;;;;18.08;68.58;102270.38;5084333;28;19967;-35
2022/06/17 00:40:24;;;;;;;;;;;;;;;18.04;68.84;102271.81;5071339;28;19921;-33
2022/06/17 00:42:49;;;;;;;;;;;;;;;18.05;68.99;102278.94;5089905;28;20320;-34
2022/06/17 00:45:15;;;;;;;;;;;;;;;18.01;68.76;102276.78;5080559;28;19964;-35
2022/06/17 00:47:44;;;;;;;;;;;;;;;17.94;68.79;102269.41;5073954;28;19920;-34
2022/06/17 00:50:22;;;;;;;;;;;;;;;17.90;69.65;102270.00;5071049;28;19920;-34
2022/06/17 00:52:52;;;;;;;;;;;;;;;17.85;70.04;102273.34;5080921;28;19924;-34
2022/06/17 00:55:28;;;;;;;;;;;;;;;17.83;70.12;102274.56;5072000;28;19924;-34
2022/06/17 00:57:53;;;;;;;;;;;;;;;17.82;70.65;102272.84;5073039;28;20381;-35
2022/06/17 01:00:18;;;;;;;;;;;;;;;17.83;70.82;102272.69;5090859;28;19932;-34
2022/06/17 01:02:48;;;;;;;;;;;;;;;17.84;70.26;102274.34;5086463;28;19932;-35
2022/06/17 01:05:14;;;;;;;;;;;;;;;17.83;70.10;102274.56;5075656;28;19920;-35
2022/06/17 01:07:40;;;;;;;;;;;;;;;17.85;70.61;102286.06;5085050;28;19921;-35
2022/06/17 01:10:09;;;;;;;;;;;;;;;17.82;70.12;102281.88;5068057;28;19920;-34
2022/06/17 01:12:38;;;;;;;;;;;;;;;17.85;70.44;102275.19;5088552;28;20023;-37
2022/06/17 01:15:03;;;;;;;;;;;;;;;17.81;70.61;102274.75;5081038;28;19927;-38
2022/06/17 01:17:29;;;;;;;;;;;;;;;17.80;70.90;102281.25;5087388;28;19934;-34
2022/06/17 01:19:55;;;;;;;;;;;;;;;17.81;71.03;102277.47;5072273;28;19977;-34
2022/06/17 01:22:27;;;;;;;;;;;;;;;17.82;70.99;102272.84;5063179;28;19925;-36
2022/06/17 01:25:09;;;;;;;;;;;;;;;17.77;70.85;102274.28;5078878;28;20399;-36
2022/06/17 01:27:38;;;;;;;;;;;;;;;17.78;70.91;102267.78;5073549;28;19947;-34
2022/06/17 01:30:05;;;;;;;;;;;;;;;17.73;70.68;102267.50;5075544;28;19927;-33
2022/06/17 01:32:33;;;;;;;;;;;;;;;17.68;70.83;102261.81;5091665;28;19920;-34
2022/06/17 01:35:00;;;;;;;;;;;;;;;17.66;71.47;102257.59;5090328;28;20013;-34
2022/06/17 01:37:25;;;;;;;;;;;;;;;17.64;71.25;102255.09;5079977;28;19943;-34
2022/06/17 01:39:50;;;;;;;;;;;;;;;17.63;71.29;102258.00;5077879;28;19909;-33
2022/06/17 01:42:16;;;;;;;;;;;;;;;17.63;71.78;102252.53;5080840;28;19946;-33
2022/06/17 01:44:41;;;;;;;;;;;;;;;17.60;71.94;102251.06;5092823;28;19965;-35
2022/06/17 01:47:11;;;;;;;;;;;;;;;17.60;72.22;102252.94;5092822;28;19984;-35
2022/06/17 01:49:38;;;;;;;;;;;;;;;17.61;72.11;102244.56;5076041;28;19952;-34
2022/06/17 01:52:08;;;;;;;;;;;;;;;17.59;72.32;102246.66;5074370;28;20409;-33
2022/06/17 01:54:38;;;;;;;;;;;;;;;17.64;72.57;102256.94;5075939;28;19947;-35
2022/06/17 01:57:03;;;;;;;;;;;;;;;17.66;72.22;102252.97;5093375;28;19913;-34
2022/06/17 01:59:31;;;;;;;;;;;;;;;17.68;72.17;102260.97;5081564;28;19916;-36
2022/06/17 02:01:56;;;;;;;;;;;;;;;17.68;71.77;102261.81;5073948;28;19928;-35
2022/06/17 02:04:23;;;;;;;;;;;;;;;17.70;71.98;102261.63;5080395;28;20007;-34
2022/06/17 02:07:00;;;;;;;;;;;;;;;17.71;71.70;102266.03;5093323;28;19925;-33
2022/06/17 02:09:25;;;;;;;;;;;;;;;17.70;71.49;102259.75;5087416;28;19920;-35
2022/06/17 02:11:50;;;;;;;;;;;;;;;17.71;71.84;102264.13;5094703;28;19943;-34
2022/06/17 02:14:15;;;;;;;;;;;;;;;17.77;71.94;102260.66;5084784;28;19920;-34
2022/06/17 02:16:42;;;;;;;;;;;;;;;17.80;71.23;102264.91;5091046;28;19927;-34
2022/06/17 02:19:07;;;;;;;;;;;;;;;17.78;71.12;102261.50;5085002;28;19920;-35
2022/06/17 02:21:34;;;;;;;;;;;;;;;17.78;71.27;102265.06;5074431;28;19931;-33
2022/06/17 02:24:00;;;;;;;;;;;;;;;17.80;71.12;102261.31;5074525;28;19925;-36
2022/06/17 02:26:25;;;;;;;;;;;;;;;17.78;71.12;102262.31;5057731;28;19917;-34
2022/06/17 02:28:50;;;;;;;;;;;;;;;17.79;71.21;102263.19;5082716;28;19921;-34
2022/06/17 02:31:15;;;;;;;;;;;;;;;17.77;70.95;102260.66;5082434;28;19917;-34
2022/06/17 02:33:41;;;;;;;;;;;;;;;17.73;70.84;102263.97;5085269;28;19935;-35
2022/06/17 02:36:12;;;;;;;;;;;;;;;17.69;70.86;102262.66;5082349;28;19929;-34
2022/06/17 02:38:39;;;;;;;;;;;;;;;17.68;70.81;102261.81;5081435;28;19962;-34
2022/06/17 02:41:05;;;;;;;;;;;;;;;17.67;71.16;102264.75;5080462;28;19943;-37
2022/06/17 02:43:33;;;;;;;;;;;;;;;17.61;70.97;102269.06;5081561;28;19954;-35
2022/06/17 02:46:00;;;;;;;;;;;;;;;17.63;71.60;102269.72;5074515;28;19943;-37
2022/06/17 02:48:27;;;;;;;;;;;;;;;17.60;71.46;102266.56;5073329;28;19928;-34
2022/06/17 02:50:53;;;;;;;;;;;;;;;17.59;71.56;102263.00;5074258;28;19920;-34
2022/06/17 02:53:20;;;;;;;;;;;;;;;17.60;71.83;102263.81;5090824;28;19921;-33
2022/06/17 02:55:45;;;;;;;;;;;;;;;17.63;71.52;102264.28;5091275;28;19920;-34
2022/06/17 02:58:30;;;;;;;;;;;;;;;17.66;71.46;102263.03;5083942;28;19940;-36
2022/06/17 03:00:56;;;;;;;;;;;;;;;17.66;71.09;102258.44;5048629;28;19944;-35
2022/06/17 03:03:21;;;;;;;;;;;;;;;17.70;71.35;102258.91;5065207;28;19992;-35
2022/06/17 03:05:46;;;;;;;;;;;;;;;17.76;71.80;102250.78;5076229;28;20043;-34
2022/06/17 03:08:18;;;;;;;;;;;;;;;17.77;71.08;102255.22;5084019;28;19931;-35
2022/06/17 03:10:43;;;;;;;;;;;;;;;17.77;71.48;102252.50;5090112;28;19940;-36
2022/06/17 03:13:25;;;;;;;;;;;;;;;17.80;71.64;102248.56;5078454;28;20222;-35
2022/06/17 03:15:51;;;;;;;;;;;;;;;17.84;71.41;102249.84;5072802;28;19927;-34
2022/06/17 03:18:16;;;;;;;;;;;;;;;17.83;70.87;102247.34;5071241;28;20321;-34
2022/06/17 03:20:41;;;;;;;;;;;;;;;17.81;71.07;102254.84;5079222;28;19952;-34
2022/06/17 03:23:09;;;;;;;;;;;;;;;17.86;70.94;102253.22;5088872;28;19947;-36
2022/06/17 03:25:36;;;;;;;;;;;;;;;17.82;69.96;102251.91;5088224;28;19915;-35
2022/06/17 03:28:03;;;;;;;;;;;;;;;17.80;70.34;102258.59;5065765;28;19920;-34
2022/06/17 03:30:30;;;;;;;;;;;;;;;17.79;70.34;102252.31;5074288;28;19958;-34
2022/06/17 03:33:07;;;;;;;;;;;;;;;17.78;69.94;102246.00;5074095;28;20101;-35
2022/06/17 03:35:33;;;;;;;;;;;;;;;17.82;70.46;102245.63;5079313;28;19988;-34
2022/06/17 03:38:17;;;;;;;;;;;;;;;17.88;70.63;102247.59;5085805;28;19921;-35
2022/06/17 03:40:43;;;;;;;;;;;;;;;17.92;70.96;102251.59;5083702;28;19979;-35
2022/06/17 03:43:10;;;;;;;;;;;;;;;17.97;70.72;102243.66;5072032;28;20013;-34
2022/06/17 03:45:46;;;;;;;;;;;;;;;18.02;70.03;102252.09;5086653;28;19920;-37
2022/06/17 03:48:20;;;;;;;;;;;;;;;17.99;69.22;102253.31;5067758;28;19921;-34
2022/06/17 03:50:47;;;;;;;;;;;;;;;18.03;68.64;102253.75;5076325;28;20487;-33
2022/06/17 03:53:17;;;;;;;;;;;;;;;18.10;68.71;102249.22;5087461;28;19932;-34
2022/06/17 03:55:43;;;;;;;;;;;;;;;18.16;68.61;102245.69;5070519;28;19982;-34
2022/06/17 03:58:10;;;;;;;;;;;;;;;18.20;68.29;102244.28;5070780;28;19935;-35
2022/06/17 04:00:40;;;;;;;;;;;;;;;18.15;67.95;102244.03;5071877;28;19975;-36
2022/06/17 04:03:06;;;;;;;;;;;;;;;18.12;67.97;102247.16;5070846;28;19974;-34
2022/06/17 04:05:31;;;;;;;;;;;;;;;18.18;68.02;102246.34;5087787;28;19915;-34
2022/06/17 04:07:56;;;;;;;;;;;;;;;18.15;67.85;102240.47;5077933;28;19920;-35
2022/06/17 04:10:23;;;;;;;;;;;;;;;18.11;67.34;102245.44;5085735;28;19924;-34
2022/06/17 04:12:49;;;;;;;;;;;;;;;18.17;67.87;102250.13;5072847;28;20074;-34
2022/06/17 04:15:14;;;;;;;;;;;;;;;18.21;67.89;102250.56;5066543;28;19924;-36
2022/06/17 04:17:41;;;;;;;;;;;;;;;18.23;67.54;102247.66;5077420;28;19931;-35
2022/06/17 04:20:12;;;;;;;;;;;;;;;18.29;68.67;102246.84;5082729;28;19947;-34
2022/06/17 04:22:37;;;;;;;;;;;;;;;18.31;68.05;102242.88;5079800;28;19970;-37
2022/06/17 04:25:04;;;;;;;;;;;;;;;18.32;66.72;102241.81;5067483;28;19977;-35
2022/06/17 04:27:56;;;;;;;;;;;;;;;18.28;66.36;102245.16;5067640;28;19916;-37
2022/06/17 04:30:17;;;;;;;;;;;;;;;18.34;66.94;102244.38;5057149;28;19924;-33
2022/06/17 04:32:42;;;;;;;;;;;;;;;18.40;66.90;102240.81;5066527;28;19921;-35
2022/06/17 04:35:11;;;;;;;;;;;;;;;18.39;66.06;102236.44;5067213;28;19940;-35
2022/06/17 04:37:38;;;;;;;;;;;;;;;18.45;66.11;102230.16;5068966;28;20281;-33
2022/06/17 04:40:03;;;;;;;;;;;;;;;18.37;66.03;102238.50;5082439;28;19921;-35
2022/06/17 04:42:33;;;;;;;;;;;;;;;18.41;66.55;102247.97;5075459;28;19916;-34
2022/06/17 04:44:59;;;;;;;;;;;;;;;18.49;66.55;102239.66;5077305;28;19909;-34
2022/06/17 04:47:24;;;;;;;;;;;;;;;18.56;66.33;102228.75;5072194;28;19908;-35
2022/06/17 04:49:56;;;;;;;;;;;;;;;18.63;65.19;102225.03;5083617;28;19944;-35
2022/06/17 04:52:23;;;;;;;;;;;;;;;18.61;64.88;102227.09;5081209;28;19921;-35
2022/06/17 04:54:49;;;;;;;;;;;;;;;18.68;64.93;102223.59;5078376;28;19916;-35
2022/06/17 04:57:14;;;;;;;;;;;;;;;18.71;64.88;102224.03;5073028;28;19935;-35
2022/06/17 04:59:41;;;;;;;;;;;;;;;18.68;65.13;102223.59;5088936;28;20025;-35
2022/06/17 05:02:17;;;;;;;;;;;;;;;18.65;65.02;102224.84;5079534;28;19921;-35
2022/06/17 05:04:42;;;;;;;;;;;;;;;18.65;65.02;102220.22;5070721;28;19917;-34
2022/06/17 05:07:08;;;;;;;;;;;;;;;18.65;65.59;102219.38;5072283;28;19973;-37
2022/06/17 05:09:42;;;;;;;;;;;;;;;18.70;64.96;102210.59;5072640;28;19943;-35
2022/06/17 05:12:14;;;;;;;;;;;;;;;18.80;63.63;102205.63;5071084;28;19924;-37
2022/06/17 05:14:52;;;;;;;;;;;;;;;18.81;63.29;102202.69;5070457;28;20008;-35
2022/06/17 05:17:18;;;;;;;;;;;;;;;18.86;62.78;102199.38;5072104;28;19952;-33
2022/06/17 05:19:43;;;;;;;;;;;;;;;18.92;62.11;102193.09;5072487;28;19920;-34
2022/06/17 05:22:11;;;;;;;;;;;;;;;18.93;62.11;102202.09;5073552;28;19917;-34
2022/06/17 05:24:36;;;;;;;;;;;;;;;19.03;61.05;102195.22;5071868;28;20015;-35
2022/06/17 05:27:01;;;;;;;;;;;;;;;19.07;61.20;102203.84;5071670;28;20342;-34
2022/06/17 05:29:27;;;;;;;;;;;;;;;19.07;61.60;102199.22;5071300;28;20355;-34
2022/06/17 05:31:52;;;;;;;;;;;;;;;19.11;61.07;102201.53;5072264;28;19975;-34
2022/06/17 05:34:18;;;;;;;;;;;;;;;19.17;60.07;102203.44;5071849;28;19924;-35
2022/06/17 05:36:43;;;;;;;;;;;;;;;19.20;59.55;102208.50;5072682;28;19952;-36
2022/06/17 05:39:08;;;;;;;;;;;;;;;19.30;59.03;102214.41;5070199;28;19921;-36
2022/06/17 05:41:33;;;;;;;;;;;;;;;19.36;58.30;102221.78;5071015;28;19927;-35
2022/06/17 05:43:58;;;;;;;;;;;;;;;19.42;57.93;102204.56;5067213;28;19920;-35
2022/06/17 05:46:24;;;;;;;;;;;;;;;19.58;56.93;102200.56;5070479;28;19948;-36
2022/06/17 05:48:49;;;;;;;;;;;;;;;19.70;56.43;102209.03;5070557;28;19920;-36
2022/06/17 05:51:14;;;;;;;;;;;;;;;19.77;56.12;102195.38;5072218;28;19921;-34
2022/06/17 05:53:39;;;;;;;;;;;;;;;19.90;55.99;102189.91;5071239;28;19921;-35
2022/06/17 05:56:05;;;;;;;;;;;;;;;19.91;56.01;102173.31;5070127;28;20024;-34
2022/06/17 05:58:30;;;;;;;;;;;;;;;20.03;55.59;102173.47;5069310;28;19932;-34
2022/06/17 06:00:55;;;;;;;;;;;;;;;20.16;55.21;102183.56;5070612;28;19928;-37
2022/06/17 06:03:22;;;;;;;;;;;;;;;20.28;55.12;102172.81;5082060;28;19939;-33
2022/06/17 06:05:48;;;;;;;;;;;;;;;20.39;54.95;102167.53;5071506;28;19928;-35
2022/06/17 06:08:13;;;;;;;;;;;;;;;20.56;54.06;102172.53;5080457;28;19992;-34
2022/06/17 06:10:39;;;;;;;;;;;;;;;20.63;54.00;102178.84;5061617;28;19932;-35
2022/06/17 06:13:04;;;;;;;;;;;;;;;20.73;52.81;102179.22;5070402;28;19952;-35
2022/06/17 06:15:29;;;;;;;;;;;;;;;20.76;52.69;102177.94;5072621;28;19923;-34
2022/06/17 06:17:55;;;;;;;;;;;;;;;20.85;52.51;102181.25;5073280;28;19920;-36
2022/06/17 06:20:20;;;;;;;;;;;;;;;20.91;52.05;102180.41;5069003;28;19920;-34
2022/06/17 06:22:45;;;;;;;;;;;;;;;20.82;52.19;102175.16;5075523;28;19921;-35
2022/06/17 06:25:11;;;;;;;;;;;;;;;20.73;52.35;102179.22;5076723;28;19917;-35
2022/06/17 06:27:36;;;;;;;;;;;;;;;20.82;52.44;102177.06;5075033;28;20125;-36
2022/06/17 06:30:02;;;;;;;;;;;;;;;20.86;52.41;102172.00;5074504;28;19920;-36
2022/06/17 06:32:27;;;;;;;;;;;;;;;20.87;52.65;102170.94;5069458;28;19921;-35
2022/06/17 06:34:52;;;;;;;;;;;;;;;20.94;53.14;102172.59;5068713;28;19924;-38
2022/06/17 06:37:17;;;;;;;;;;;;;;;21.02;51.82;102193.41;5069817;28;19939;-35
2022/06/17 06:39:43;;;;;;;;;;;;;;;21.18;52.47;102195.63;5068739;28;19925;-35
2022/06/17 06:42:08;;;;;;;;;;;;;;;21.48;51.36;102192.28;5071888;28;19987;-35
2022/06/17 06:44:33;;;;;;;;;;;;;;;21.61;50.97;102191.34;5070560;28;20034;-35
2022/06/17 06:46:58;;;;;;;;;;;;;;;21.86;50.43;102188.63;5086658;28;20038;-35
2022/06/17 06:49:23;;;;;;;;;;;;;;;22.00;49.94;102195.63;5073853;28;19980;-34
2022/06/17 06:51:49;;;;;;;;;;;;;;;22.13;49.69;102194.69;5073010;28;19932;-35
2022/06/17 06:54:14;;;;;;;;;;;;;;;22.14;49.52;102186.25;5073485;28;19921;-35
2022/06/17 06:56:39;;;;;;;;;;;;;;;22.43;48.49;102177.50;5075062;28;19959;-35
2022/06/17 06:59:04;;;;;;;;;;;;;;;22.30;49.37;102184.84;5073082;28;19970;-34
2022/06/17 07:01:30;;;;;;;;;;;;;;;22.72;49.03;102181.38;5083039;28;19933;-34
2022/06/17 07:03:55;;;;;;;;;;;;;;;23.16;47.27;102179.34;5073904;28;19959;-33
2022/06/17 07:06:20;;;;;;;;;;;;;;;23.84;45.30;102183.56;5073827;28;19943;-35
2022/06/17 07:08:45;;;;;;;;;;;;;;;24.28;44.45;102195.03;5073893;28;19917;-34
2022/06/17 07:11:10;;;;;;;;;;;;;;;24.95;43.12;102211.06;5073595;28;19913;-38
2022/06/17 07:13:36;;;;;;;;;;;;;;;25.26;41.25;102211.69;5075118;28;20407;-34
2022/06/17 07:16:02;;;;;;;;;;;;;;;25.38;41.36;102220.69;5078873;28;19908;-35
2022/06/17 07:18:30;;;;;;;;;;;;;;;25.57;40.15;102210.31;5074882;28;19951;-36
2022/06/17 07:21:00;;;;;;;;;;;;;;;25.98;40.32;102209.06;5074272;28;19988;-34
2022/06/17 07:23:30;;;;;;;;;;;;;;;26.84;38.18;102214.13;5074568;28;19920;-35
2022/06/17 07:25:57;;;;;;;;;;;;;;;25.79;38.88;102210.38;5070841;28;19921;-33
2022/06/17 07:28:23;;;;;;;;;;;;;;;26.08;38.52;102207.56;5055646;28;19921;-35
2022/06/17 07:30:49;;;;;;;;;;;;;;;26.42;37.84;102206.41;5055529;28;19912;-34
2022/06/17 07:33:14;;;;;;;;;;;;;;;26.87;37.04;102210.84;5057630;28;19940;-37
2022/06/17 07:35:43;;;;;;;;;;;;;;;27.25;37.38;102205.47;5074819;28;19935;-35
2022/06/17 07:40:55;;;;;;;;;;;;;;;27.10;36.45;102192.31;5075093;28;19918;-34
2022/06/17 07:43:20;;;;;;;;;;;;;;;28.02;35.56;102182.09;5073535;28;20450;-35
2022/06/17 07:45:45;;;;;;;;;;;;;;;28.02;34.55;102193.16;5072859;28;19946;-34
2022/06/17 07:48:12;;;;;;;;;;;;;;;26.50;35.58;102194.91;5074358;28;19909;-35
2022/06/17 07:50:37;;;;;;;;;;;;;;;26.70;36.16;102205.41;5074471;28;19908;-33
2022/06/17 07:53:02;;;;;;;;;;;;;;;26.12;36.72;102205.94;5073709;28;19966;-34
2022/06/17 07:55:28;;;;;;;;;;;;;;;26.62;37.00;102205.88;5073583;28;19931;-35
2022/06/17 07:57:53;;;;;;;;;;;;;;;26.81;36.42;102211.91;5073158;28;19948;-34
2022/06/17 08:00:26;;;;;;;;;;;;;;;27.19;35.47;102218.41;5075181;28;19909;-34
2022/06/17 08:02:52;;;;;;;;;;;;;;;27.06;35.94;102208.56;5073325;28;19935;-33
2022/06/17 08:05:17;;;;;;;;;;;;;;;27.27;35.64;102209.66;5074543;28;19921;-36
2022/06/17 08:07:42;;;;;;;;;;;;;;;27.50;35.61;102208.50;5074332;28;19917;-33
2022/06/17 08:10:08;;;;;;;;;;;;;;;27.92;34.47;102216.06;5073842;28;19936;-35
2022/06/17 08:12:33;;;;;;;;;;;;;;;27.63;35.41;102207.22;5074767;28;19932;-37
2022/06/17 08:14:58;;;;;;;;;;;;;;;28.44;34.67;102206.16;5075800;28;19928;-36
2022/06/17 08:17:24;;;;;;;;;;;;;;;29.60;32.37;102217.84;5075431;28;19927;-35
2022/06/17 08:19:51;;;;;;;;;;;;;;;29.94;31.95;102218.13;5074967;28;19943;-36
2022/06/17 08:22:17;;;;;;;;;;;;;;;29.75;31.93;102214.25;5075403;28;19927;-36
2022/06/17 08:24:43;;;;;;;;;;;;;;;30.00;30.93;102221.72;5073924;28;19916;-35
2022/06/17 08:27:08;;;;;;;;;;;;;;;29.84;31.34;102226.47;5073601;28;19996;-36
2022/06/17 08:29:33;;;;;;;;;;;;;;;29.36;32.29;102223.09;5073684;28;19920;-39
2022/06/17 08:32:45;;;;;;;;;;;;;;;28.46;33.42;102231.63;5074272;28;19935;-34
2022/06/17 08:34:43;;;;;;;;;;;;;;;28.65;33.64;102224.53;5074016;28;19958;-36
2022/06/17 08:37:10;;;;;;;;;;;;;;;29.89;32.88;102229.25;5074918;28;20508;-36
2022/06/17 08:39:35;;;;;;;;;;;;;;;29.82;31.99;102220.38;5075351;28;19924;-36
2022/06/17 08:42:03;;;;;;;;;;;;;;;29.02;31.56;102226.34;5075085;28;19920;-35
2022/06/17 08:44:32;;;;;;;;;;;;;;;29.18;32.69;102220.88;5074858;28;19919;-34
2022/06/17 08:47:13;;;;;;;;;;;;;;;28.91;31.97;102221.84;5073344;28;19912;-35
2022/06/17 08:49:57;;;;;;;;;;;;;;;28.94;32.45;102228.78;5074831;28;19905;-34
2022/06/17 08:52:41;;;;;;;;;;;;;;;29.78;31.47;102219.28;5075132;28;19901;-35
2022/06/17 08:55:25;;;;;;;;;;;;;;;28.98;32.40;102216.88;5073747;28;19917;-38
2022/06/17 08:57:53;;;;;;;;;;;;;;;29.04;33.39;102220.50;5073748;28;19913;-34
2022/06/17 09:00:19;;;;;;;;;;;;;;;29.04;33.21;102226.94;5074540;28;19939;-35
2022/06/17 09:03:05;;;;;;;;;;;;;;;28.87;33.75;102227.09;5074079;28;19905;-35
2022/06/17 09:05:49;;;;;;;;;;;;;;;28.63;34.19;102226.75;5074048;28;19962;-34
2022/06/17 09:08:27;;;;;;;;;;;;;;;29.70;32.04;102217.03;5074059;28;19984;-36
2022/06/17 09:10:53;;;;;;;;;;;;;;;30.47;31.20;102226.09;5071689;28;19901;-36
2022/06/17 09:13:31;;;;;;;;;;;;;;;30.61;30.69;102217.97;5071933;28;19921;-36
2022/06/17 09:16:12;;;;;;;;;;;;;;;30.61;31.13;102231.88;5071450;28;19917;-33
2022/06/17 09:18:38;;;;;;;;;;;;;;;31.28;31.58;102233.22;5072644;28;19917;-33
2022/06/17 09:21:23;;;;;;;;;;;;;;;31.88;29.94;102232.19;5072337;28;19940;-35
2022/06/17 09:23:48;;;;;;;;;;;;;;;31.44;29.68;102235.94;5073498;28;19897;-33
2022/06/17 09:26:15;;;;;;;;;;;;;;;30.62;30.94;102225.19;5072556;28;19956;-34
2022/06/17 09:28:42;;;;;;;;;;;;;;;29.81;32.22;102223.44;5071893;28;19916;-35
2022/06/17 09:31:14;;;;;;;;;;;;;;;30.55;31.42;102219.13;5072378;28;19917;-37
2022/06/17 09:33:42;;;;;;;;;;;;;;;31.38;30.38;102223.16;5072819;28;19905;-34
2022/06/17 09:36:13;;;;;;;;;;;;;;;30.92;29.78;102221.47;5070714;28;20084;-34
2022/06/17 09:38:53;;;;;;;;;;;;;;;31.54;29.62;102210.78;5071789;28;19917;-34
2022/06/17 09:41:23;;;;;;;;;;;;;;;31.35;28.57;102230.09;5072734;28;19980;-34
2022/06/17 09:43:56;;;;;;;;;;;;;;;31.21;29.08;102210.44;5075653;28;19944;-35
2022/06/17 09:46:25;;;;;;;;;;;;;;;30.92;30.54;102203.97;5075792;28;19980;-33
2022/06/17 09:48:59;;;;;;;;;;;;;;;31.09;28.73;102215.53;5075806;28;19992;-36
2022/06/17 09:51:30;;;;;;;;;;;;;;;31.19;29.07;102204.34;5075858;28;19981;-36
2022/06/17 09:54:00;;;;;;;;;;;;;;;32.49;27.30;102200.97;5076121;28;19944;-34
2022/06/17 09:56:29;;;;;;;;;;;;;;;31.74;27.76;102203.38;5076347;28;19905;-34
2022/06/17 09:59:04;;;;;;;;;;;;;;;30.86;28.19;102200.41;5057355;28;19991;-36
2022/06/17 10:01:29;;;;;;;;;;;;;;;30.76;28.65;102192.91;5075484;28;20039;-33
2022/06/17 10:03:54;;;;;;;;;;;;;;;30.16;29.61;102192.81;5074207;28;19928;-34
2022/06/17 10:06:29;;;;;;;;;;;;;;;30.49;29.75;102186.91;5075025;28;19904;-34
2022/06/17 10:09:16;;;;;;;;;;;;;;;30.79;29.15;102189.53;5073685;28;19935;-34
2022/06/17 10:11:43;;;;;;;;;;;;;;;30.95;29.09;102190.31;5074180;28;19928;-35
2022/06/17 10:14:27;;;;;;;;;;;;;;;31.20;28.40;102177.34;5074129;28;19978;-33
2022/06/17 10:19:42;;;;;;;;;;;;;;;32.05;28.07;102181.66;5073775;28;19932;-34
2022/06/17 10:22:46;;;;;;;;;;;;;;;31.98;28.48;102170.88;5074838;28;19976;-35
2022/06/17 10:25:14;;;;;;;;;;;;;;;32.61;27.58;102182.97;5071994;28;19943;-35
2022/06/17 10:27:45;;;;;;;;;;;;;;;32.35;27.26;102177.69;5071525;28;19984;-32
2022/06/17 10:30:16;;;;;;;;;;;;;;;31.38;27.50;102173.06;5062063;28;19931;-32
2022/06/17 10:32:42;;;;;;;;;;;;;;;31.13;28.79;102155.44;5073886;28;19916;-33
2022/06/17 10:35:13;;;;;;;;;;;;;;;31.64;27.92;102157.81;5074105;28;19921;-34
2022/06/17 10:37:39;;;;;;;;;;;;;;;32.12;27.44;102165.41;5072647;28;19916;-36
2022/06/17 10:40:05;;;;;;;;;;;;;;;31.76;27.84;102171.34;5074711;28;19928;-33
2022/06/17 10:42:31;;;;;;;;;;;;;;;31.77;27.90;102163.81;5075363;28;19917;-33
2022/06/17 10:44:57;;;;;;;;;;;;;;;31.04;28.80;102154.38;5075193;28;19924;-34
2022/06/17 10:47:25;;;;;;;;;;;;;;;30.74;29.35;102152.63;5075317;28;19917;-33
2022/06/17 10:49:51;;;;;;;;;;;;;;;31.00;29.05;102145.81;5075572;28;19917;-33
2022/06/17 10:52:20;;;;;;;;;;;;;;;31.39;28.59;102147.75;5074459;28;19916;-35
2022/06/17 10:54:46;;;;;;;;;;;;;;;32.04;27.89;102147.41;5072661;28;19923;-33
2022/06/17 10:57:12;;;;;;;;;;;;;;;31.54;28.50;102137.59;5071706;28;19956;-33
2022/06/17 10:59:41;;;;;;;;;;;;;;;31.44;27.59;102128.25;5072503;28;19916;-34
2022/06/17 11:02:20;;;;;;;;;;;;;;;31.77;26.97;102127.63;5073955;28;19917;-35
2022/06/17 11:04:48;;;;;;;;;;;;;;;31.46;28.10;102116.81;5073418;28;19936;-35
2022/06/17 11:07:14;;;;;;;;;;;;;;;31.59;27.05;102121.69;5073728;28;20026;-35
2022/06/17 11:09:40;;;;;;;;;;;;;;;31.12;27.70;102109.28;5073707;28;19920;-34
2022/06/17 11:12:13;;;;;;;;;;;;;;;30.98;26.89;102111.88;5072750;28;19955;-33
2022/06/17 11:14:44;;;;;;;;;;;;;;;31.20;27.99;102105.91;5074016;28;19940;-33
2022/06/17 11:17:18;;;;;;;;;;;;;;;31.04;28.76;102107.97;5074424;28;19917;-34
2022/06/17 11:19:43;;;;;;;;;;;;;;;30.74;28.84;102108.97;5073596;28;19917;-33
2022/06/17 11:22:15;;;;;;;;;;;;;;;31.43;28.72;102114.63;5073032;28;19917;-34
2022/06/17 11:24:43;;;;;;;;;;;;;;;31.21;28.67;102124.22;5073488;28;19988;-36
2022/06/17 11:27:23;;;;;;;;;;;;;;;31.33;27.30;102118.28;5072849;28;19921;-36
2022/06/17 11:29:50;;;;;;;;;;;;;;;31.38;28.06;102128.56;5072332;28;19917;-34
2022/06/17 11:32:21;;;;;;;;;;;;;;;31.11;28.81;102135.44;5072262;28;19927;-34
2022/06/17 11:34:47;;;;;;;;;;;;;;;31.07;28.35;102128.81;5071529;28;19940;-38
2022/06/17 11:37:12;;;;;;;;;;;;;;;31.07;29.05;102126.03;5070795;28;19936;-37
2022/06/17 11:39:38;;;;;;;;;;;;;;;31.16;28.74;102120.66;5070749;28;19908;-36
2022/06/17 11:42:05;;;;;;;;;;;;;;;31.97;28.58;102119.09;5069866;28;19917;-33
2022/06/17 11:44:30;;;;;;;;;;;;;;;31.99;27.41;102122.41;5070893;28;20235;-34
2022/06/17 11:46:57;;;;;;;;;;;;;;;31.60;26.73;102114.19;5071054;28;19904;-33
2022/06/17 11:49:22;;;;;;;;;;;;;;;31.42;28.50;102112.97;5072404;28;19920;-34
2022/06/17 11:51:49;;;;;;;;;;;;;;;31.10;29.73;102110.69;5073390;28;19975;-34
2022/06/17 11:54:25;;;;;;;;;;;;;;;31.18;28.29;102121.22;5073312;28;19923;-34
2022/06/17 11:56:51;;;;;;;;;;;;;;;30.61;28.33;102095.72;5074157;28;19916;-33
2022/06/17 11:59:17;;;;;;;;;;;;;;;30.77;28.95;102097.28;5072861;28;20172;-33
2022/06/17 12:01:47;;;;;;;;;;;;;;;30.59;29.43;102086.84;5071493;28;19917;-33
2022/06/17 12:04:29;;;;;;;;;;;;;;;31.00;28.60;102094.94;5071953;28;19917;-33
2022/06/17 12:06:56;;;;;;;;;;;;;;;31.72;28.27;102086.75;5070878;28;19917;-34
2022/06/17 12:09:35;;;;;;;;;;;;;;;31.32;28.73;102085.19;5072106;28;20008;-35
2022/06/17 12:12:02;;;;;;;;;;;;;;;30.66;28.56;102076.22;5070615;28;19923;-34
2022/06/17 12:14:29;;;;;;;;;;;;;;;30.90;28.78;102092.22;5070842;28;19989;-35
2022/06/17 12:16:54;;;;;;;;;;;;;;;31.41;28.22;102077.91;5070939;28;20428;-33
2022/06/17 12:19:20;;;;;;;;;;;;;;;31.78;27.79;102079.19;5070240;28;19921;-33
2022/06/17 12:21:48;;;;;;;;;;;;;;;32.15;27.02;102064.56;5072482;28;19908;-36
2022/06/17 12:24:23;;;;;;;;;;;;;;;31.43;27.01;102078.44;5070760;28;19935;-34
2022/06/17 12:27:01;;;;;;;;;;;;;;;31.47;26.80;102071.19;5072744;28;19921;-35
2022/06/17 12:29:37;;;;;;;;;;;;;;;31.63;26.19;102075.44;5072574;28;19928;-33
2022/06/17 12:32:16;;;;;;;;;;;;;;;31.57;26.72;102064.66;5073397;28;19921;-36
2022/06/17 12:34:41;;;;;;;;;;;;;;;31.95;25.95;102059.25;5071847;28;19917;-34
2022/06/17 12:37:13;;;;;;;;;;;;;;;31.91;26.76;102058.97;5073321;28;19943;-34
2022/06/17 12:39:44;;;;;;;;;;;;;;;31.54;27.41;102054.13;5071201;28;19927;-35
2022/06/17 12:42:09;;;;;;;;;;;;;;;31.81;26.96;102045.19;5072189;28;20235;-37
2022/06/17 12:44:51;;;;;;;;;;;;;;;31.95;27.26;102039.78;5073640;28;19908;-36
2022/06/17 12:47:18;;;;;;;;;;;;;;;30.75;27.41;102048.66;5072787;28;19934;-36